createdAt,value
2022-07-27T00:01:03.943Z,99.90
2022-07-27T00:03:33.184Z,99.90
2022-07-27T00:06:01.089Z,99.90
2022-07-27T00:08:29.001Z,99.90
2022-07-27T00:10:57.265Z,99.90
2022-07-27T00:13:25.124Z,99.90
2022-07-27T00:15:53.401Z,99.90
2022-07-27T00:18:21.423Z,99.90
2022-07-27T00:20:50.738Z,99.90
2022-07-27T00:23:18.629Z,99.90
2022-07-27T00:25:46.534Z,99.90
2022-07-27T00:28:14.425Z,99.90
2022-07-27T00:30:42.310Z,99.90
2022-07-27T00:33:10.494Z,99.90
2022-07-27T00:35:44.876Z,99.90
2022-07-27T00:38:14.107Z,99.90
2022-07-27T00:40:41.941Z,99.90
2022-07-27T00:43:09.823Z,99.90
2022-07-27T00:45:37.808Z,99.90
2022-07-27T00:48:06.705Z,99.90
2022-07-27T00:50:34.614Z,99.90
2022-07-27T00:53:04.732Z,99.90
2022-07-27T00:55:34.278Z,99.90
2022-07-27T00:58:03.591Z,99.90
2022-07-27T01:00:31.781Z,99.90
2022-07-27T01:03:01.237Z,99.90
2022-07-27T01:05:37.866Z,99.90
2022-07-27T01:08:12.329Z,99.90
2022-07-27T01:10:42.470Z,99.90
2022-07-27T01:13:12.535Z,99.90
2022-07-27T01:15:41.533Z,99.90
2022-07-27T01:18:12.779Z,99.90
2022-07-27T01:20:41.294Z,99.90
2022-07-27T01:23:11.010Z,99.90
2022-07-27T01:25:41.419Z,99.90
2022-07-27T01:28:09.300Z,99.90
2022-07-27T01:30:37.293Z,99.90
2022-07-27T01:33:07.521Z,99.90
2022-07-27T01:35:36.863Z,99.90
2022-07-27T01:38:05.442Z,99.90
2022-07-27T01:40:36.641Z,99.90
2022-07-27T01:43:05.007Z,99.90
2022-07-27T01:45:32.906Z,99.90
2022-07-27T01:48:00.799Z,99.90
2022-07-27T01:50:28.862Z,99.90
2022-07-27T01:52:56.717Z,99.90
2022-07-27T01:55:24.836Z,99.90
2022-07-27T01:57:54.008Z,99.90
2022-07-27T02:00:21.847Z,99.90
2022-07-27T02:02:49.734Z,99.90
2022-07-27T02:05:17.663Z,99.90
2022-07-27T02:07:45.601Z,99.90
2022-07-27T02:10:13.472Z,99.90
2022-07-27T02:12:40.308Z,99.90
2022-07-27T02:15:14.784Z,99.90
2022-07-27T02:17:45.033Z,99.90
2022-07-27T02:20:14.274Z,99.90
2022-07-27T02:22:42.421Z,99.90
2022-07-27T02:25:11.445Z,99.90
2022-07-27T02:27:40.358Z,99.90
2022-07-27T02:30:11.464Z,99.90
2022-07-27T02:32:40.396Z,99.90
2022-07-27T02:35:19.825Z,99.90
2022-07-27T02:37:48.713Z,99.90
2022-07-27T02:40:17.891Z,99.90
2022-07-27T02:42:46.572Z,99.90
2022-07-27T02:45:16.963Z,99.90
2022-07-27T02:47:45.729Z,99.90
2022-07-27T02:50:13.788Z,99.90
2022-07-27T02:52:41.991Z,99.90
2022-07-27T02:55:10.726Z,99.90
2022-07-27T02:57:40.989Z,99.90
2022-07-27T03:00:12.289Z,99.90
2022-07-27T03:02:41.903Z,99.90
2022-07-27T03:05:11.474Z,99.90
2022-07-27T03:07:39.554Z,99.90
2022-07-27T03:10:08.257Z,99.90
2022-07-27T03:12:36.090Z,99.90
2022-07-27T03:15:04.094Z,99.90
2022-07-27T03:17:32.789Z,99.90
2022-07-27T03:20:01.954Z,99.90
2022-07-27T03:22:32.393Z,99.90
2022-07-27T03:25:00.314Z,99.90
2022-07-27T03:27:28.998Z,99.90
2022-07-27T03:29:57.297Z,99.90
2022-07-27T03:32:25.329Z,99.90
2022-07-27T03:34:53.238Z,99.90
2022-07-27T03:37:22.476Z,99.90
2022-07-27T03:39:50.284Z,99.90
2022-07-27T03:42:18.141Z,99.90
2022-07-27T03:44:45.949Z,99.90
2022-07-27T03:47:13.843Z,99.90
2022-07-27T03:49:42.201Z,99.90
2022-07-27T03:52:13.082Z,99.90
2022-07-27T03:54:46.544Z,99.90
2022-07-27T03:57:14.431Z,99.90
2022-07-27T03:59:42.252Z,99.90
2022-07-27T04:02:10.353Z,99.90
2022-07-27T04:04:38.299Z,99.90
2022-07-27T04:07:06.149Z,99.90
2022-07-27T04:09:34.342Z,99.90
2022-07-27T04:12:03.494Z,99.90
2022-07-27T04:14:31.508Z,99.90
2022-07-27T04:16:59.412Z,99.90
2022-07-27T04:19:27.396Z,99.90
2022-07-27T04:21:55.307Z,99.90
2022-07-27T04:24:23.200Z,99.90
2022-07-27T04:26:51.219Z,99.90
2022-07-27T04:29:21.271Z,99.90
2022-07-27T04:31:49.357Z,99.90
2022-07-27T04:34:17.225Z,99.90
2022-07-27T04:36:45.069Z,99.90
2022-07-27T04:39:13.296Z,99.90
2022-07-27T04:41:41.290Z,99.90
2022-07-27T04:44:09.345Z,99.90
2022-07-27T04:46:38.559Z,99.90
2022-07-27T04:49:06.655Z,99.90
2022-07-27T04:51:35.300Z,99.90
2022-07-27T04:54:03.704Z,99.90
2022-07-27T04:56:31.601Z,99.90
2022-07-27T04:58:59.418Z,99.90
2022-07-27T05:01:31.653Z,99.90
2022-07-27T05:04:05.107Z,99.90
2022-07-27T05:06:33.080Z,99.90
2022-07-27T05:09:01.041Z,99.90
2022-07-27T05:11:28.947Z,99.90
2022-07-27T05:13:56.782Z,99.90
2022-07-27T05:16:28.467Z,99.90
2022-07-27T05:18:57.169Z,99.90
2022-07-27T05:21:27.265Z,99.90
2022-07-27T05:23:55.593Z,99.90
2022-07-27T05:26:23.418Z,99.90
2022-07-27T05:28:51.259Z,99.90
2022-07-27T05:31:19.582Z,99.90
2022-07-27T05:33:49.789Z,99.90
2022-07-27T05:36:19.369Z,99.90
2022-07-27T05:38:48.509Z,99.90
2022-07-27T05:41:16.577Z,99.90
2022-07-27T05:43:44.549Z,99.90
2022-07-27T05:46:12.507Z,99.90
2022-07-27T05:48:40.605Z,99.90
2022-07-27T05:51:09.370Z,99.90
2022-07-27T05:53:37.214Z,99.90
2022-07-27T05:56:07.923Z,99.90
2022-07-27T05:58:35.893Z,99.90
2022-07-27T06:01:03.865Z,99.90
2022-07-27T06:03:31.993Z,99.90
2022-07-27T06:06:14.027Z,99.90
2022-07-27T06:08:41.929Z,99.90
2022-07-27T06:11:11.408Z,99.90
2022-07-27T06:13:41.929Z,99.90
2022-07-27T06:16:10.815Z,99.90
2022-07-27T06:18:39.001Z,99.90
2022-07-27T06:21:06.868Z,99.90
2022-07-27T06:23:34.871Z,99.90
2022-07-27T06:26:02.845Z,99.90
2022-07-27T06:28:32.129Z,99.90
2022-07-27T06:31:00.302Z,99.90
2022-07-27T06:33:29.479Z,99.90
2022-07-27T06:35:58.443Z,99.90
2022-07-27T06:38:26.802Z,99.90
2022-07-27T06:40:54.935Z,99.90
2022-07-27T06:43:23.593Z,99.90
2022-07-27T06:45:54.111Z,99.90
2022-07-27T06:48:22.595Z,99.90
2022-07-27T06:50:50.683Z,98.80
2022-07-27T06:53:21.289Z,97.80
2022-07-27T06:55:49.396Z,97.10
2022-07-27T06:58:17.635Z,96.90
2022-07-27T07:00:45.565Z,96.20
2022-07-27T07:03:14.826Z,95.80
2022-07-27T07:05:44.310Z,94.40
2022-07-27T07:08:13.161Z,95.70
2022-07-27T07:10:41.709Z,92.90
2022-07-27T07:13:10.177Z,95.20
2022-07-27T07:15:40.093Z,93.70
2022-07-27T07:18:08.715Z,93.60
2022-07-27T07:20:38.534Z,96.90
2022-07-27T07:23:07.072Z,98.50
2022-07-27T07:25:35.652Z,96.30
2022-07-27T07:28:04.559Z,97.80
2022-07-27T07:30:32.687Z,96.00
2022-07-27T07:33:00.578Z,98.70
2022-07-27T07:35:28.560Z,97.30
2022-07-27T07:37:57.802Z,99.90
2022-07-27T07:40:43.867Z,99.10
2022-07-27T07:43:13.688Z,98.80
2022-07-27T07:45:50.662Z,98.20
2022-07-27T07:48:20.324Z,99.90
2022-07-27T07:50:51.357Z,99.90
2022-07-27T07:53:22.153Z,99.90
2022-07-27T07:55:50.389Z,99.20
2022-07-27T07:58:18.694Z,99.50
2022-07-27T08:00:46.641Z,99.90
2022-07-27T08:03:15.157Z,99.90
2022-07-27T08:05:43.022Z,99.40
2022-07-27T08:08:10.985Z,99.90
2022-07-27T08:10:40.165Z,99.90
2022-07-27T08:13:08.609Z,99.30
2022-07-27T08:15:36.809Z,99.90
2022-07-27T08:18:05.857Z,99.90
2022-07-27T08:20:35.874Z,99.90
2022-07-27T08:23:04.942Z,99.60
2022-07-27T08:25:33.298Z,99.90
2022-07-27T08:28:02.835Z,98.00
2022-07-27T08:30:33.113Z,98.90
2022-07-27T08:33:03.298Z,99.90
2022-07-27T08:35:32.526Z,99.90
2022-07-27T08:38:01.848Z,99.30
2022-07-27T08:40:46.790Z,99.90
2022-07-27T08:43:24.348Z,99.90
2022-07-27T08:45:56.178Z,98.60
2022-07-27T08:48:25.554Z,98.00
2022-07-27T08:50:53.739Z,99.60
2022-07-27T08:53:23.268Z,98.60
2022-07-27T08:55:51.854Z,99.10
2022-07-27T08:58:21.083Z,99.80
2022-07-27T09:00:50.851Z,99.50
2022-07-27T09:03:21.294Z,98.40
2022-07-27T09:05:53.074Z,99.90
2022-07-27T09:08:24.095Z,98.50
2022-07-27T09:10:54.319Z,98.00
2022-07-27T09:13:25.820Z,97.90
2022-07-27T09:16:16.939Z,99.70
2022-07-27T09:18:43.306Z,99.60
2022-07-27T09:21:14.139Z,99.30
2022-07-27T09:23:43.971Z,99.90
2022-07-27T09:26:29.821Z,98.40
2022-07-27T09:29:01.718Z,98.40
2022-07-27T09:31:30.186Z,98.10
2022-07-27T09:34:00.147Z,98.70
2022-07-27T09:36:29.502Z,97.20
2022-07-27T09:39:12.825Z,98.50
2022-07-27T09:41:43.064Z,97.80
2022-07-27T09:47:02.186Z,98.00
2022-07-27T09:49:33.283Z,99.50
2022-07-27T09:52:03.344Z,98.30
2022-07-27T09:54:46.923Z,96.20
2022-07-27T09:57:15.116Z,96.50
2022-07-27T09:59:44.286Z,96.00
2022-07-27T10:02:14.453Z,94.80
2022-07-27T10:04:43.122Z,97.40
2022-07-27T10:07:13.664Z,95.80
2022-07-27T10:09:42.152Z,94.40
2022-07-27T10:12:10.535Z,97.80
2022-07-27T10:14:38.407Z,97.00
2022-07-27T10:17:10.630Z,96.60
2022-07-27T10:19:45.916Z,94.70
2022-07-27T10:22:14.399Z,94.90
2022-07-27T10:24:42.402Z,94.60
2022-07-27T10:27:21.263Z,94.60
2022-07-27T10:29:49.580Z,96.30
2022-07-27T10:32:26.952Z,95.70
2022-07-27T10:34:55.102Z,95.30
2022-07-27T10:37:27.666Z,97.20
2022-07-27T10:40:11.154Z,97.00
2022-07-27T10:42:39.563Z,94.00
2022-07-27T10:45:10.583Z,96.30
2022-07-27T10:47:42.970Z,95.20
2022-07-27T10:50:31.853Z,94.20
2022-07-27T10:53:11.105Z,96.70
2022-07-27T10:56:00.302Z,96.10
2022-07-27T10:58:48.600Z,93.80
2022-07-27T11:01:18.311Z,94.30
2022-07-27T11:03:53.407Z,92.60
2022-07-27T11:06:41.864Z,93.30
2022-07-27T11:12:11.227Z,95.10
2022-07-27T11:14:47.307Z,95.10
2022-07-27T11:17:49.540Z,93.90
2022-07-27T11:20:06.928Z,93.30
2022-07-27T11:25:25.011Z,92.60
2022-07-27T11:27:53.083Z,94.60
2022-07-27T11:30:26.311Z,94.00
2022-07-27T11:32:55.056Z,93.20
2022-07-27T11:35:24.411Z,96.20
2022-07-27T11:38:00.356Z,94.70
2022-07-27T11:40:56.481Z,93.00
2022-07-27T11:43:33.791Z,91.90
2022-07-27T11:46:16.125Z,90.40
2022-07-27T11:51:39.464Z,89.70
2022-07-27T11:54:09.154Z,91.70
2022-07-27T11:56:39.174Z,92.20
2022-07-27T11:59:12.988Z,90.50
2022-07-27T12:01:45.616Z,89.10
2022-07-27T12:04:19.699Z,90.80
2022-07-27T12:06:55.657Z,91.30
2022-07-27T12:09:23.873Z,90.30
2022-07-27T12:12:02.015Z,91.60
2022-07-27T12:14:36.850Z,91.90
2022-07-27T12:17:22.304Z,91.90
2022-07-27T12:20:01.977Z,92.30
2022-07-27T12:22:37.161Z,93.50
2022-07-27T12:25:10.043Z,91.80
2022-07-27T12:27:55.250Z,92.10
2022-07-27T12:30:31.574Z,92.80
2022-07-27T12:32:59.865Z,91.70
2022-07-27T12:35:35.972Z,93.00
2022-07-27T12:38:09.731Z,91.20
2022-07-27T12:40:46.377Z,91.20
2022-07-27T12:43:18.090Z,92.50
2022-07-27T12:45:46.987Z,91.90
2022-07-27T12:48:17.701Z,92.90
2022-07-27T12:50:47.089Z,92.60
2022-07-27T12:53:17.885Z,92.60
2022-07-27T12:55:45.839Z,90.60
2022-07-27T12:58:14.952Z,91.50
2022-07-27T13:00:43.389Z,92.10
2022-07-27T13:03:11.327Z,91.50
2022-07-27T13:05:39.229Z,91.20
2022-07-27T13:08:07.710Z,91.50
2022-07-27T13:10:37.425Z,91.70
2022-07-27T13:13:05.892Z,91.30
2022-07-27T13:15:34.052Z,90.60
2022-07-27T13:18:02.021Z,92.00
2022-07-27T13:20:30.290Z,91.70
2022-07-27T13:22:58.211Z,90.80
2022-07-27T13:25:26.022Z,90.20
2022-07-27T13:27:55.539Z,90.50
2022-07-27T13:30:24.512Z,90.80
2022-07-27T13:32:52.487Z,90.00
2022-07-27T13:35:20.385Z,90.30
2022-07-27T13:37:48.186Z,90.10
2022-07-27T13:40:16.002Z,89.60
2022-07-27T13:42:44.114Z,86.80
2022-07-27T13:45:13.461Z,90.30
2022-07-27T13:47:42.443Z,89.00
2022-07-27T13:50:17.960Z,89.90
2022-07-27T13:52:47.468Z,89.10
2022-07-27T13:55:16.188Z,91.20
2022-07-27T13:57:46.476Z,89.00
2022-07-27T14:00:17.020Z,89.90
2022-07-27T14:02:45.903Z,90.10
2022-07-27T14:05:14.759Z,90.70
2022-07-27T14:07:44.463Z,90.10
2022-07-27T14:10:30.405Z,90.40
2022-07-27T14:13:08.134Z,90.70
2022-07-27T14:15:50.274Z,90.40
2022-07-27T14:18:22.446Z,89.70
2022-07-27T14:20:50.395Z,90.00
2022-07-27T14:23:18.321Z,88.90
2022-07-27T14:25:46.205Z,88.80
2022-07-27T14:28:13.993Z,88.70
2022-07-27T14:30:43.175Z,88.80
2022-07-27T14:33:11.202Z,86.10
2022-07-27T14:35:40.940Z,85.30
2022-07-27T14:38:09.511Z,87.50
2022-07-27T14:40:37.542Z,87.90
2022-07-27T14:43:06.215Z,86.70
2022-07-27T14:45:45.413Z,83.60
2022-07-27T14:48:25.055Z,86.10
2022-07-27T14:51:00.588Z,89.40
2022-07-27T14:53:28.560Z,89.70
2022-07-27T14:55:56.431Z,86.80
2022-07-27T14:58:24.316Z,89.60
2022-07-27T15:00:52.599Z,90.00
2022-07-27T15:03:21.901Z,87.90
2022-07-27T15:05:51.030Z,87.70
2022-07-27T15:08:19.956Z,87.70
2022-07-27T15:10:48.516Z,87.80
2022-07-27T15:13:16.689Z,86.90
2022-07-27T15:15:44.688Z,87.20
2022-07-27T15:18:12.522Z,86.70
2022-07-27T15:20:41.718Z,88.70
2022-07-27T15:23:09.573Z,88.10
2022-07-27T15:25:37.401Z,88.20
2022-07-27T15:28:05.636Z,87.60
2022-07-27T15:30:38.681Z,89.10
2022-07-27T15:33:07.018Z,89.60
2022-07-27T15:35:34.911Z,88.80
2022-07-27T15:38:04.200Z,86.60
2022-07-27T15:40:42.382Z,88.80
2022-07-27T15:43:12.844Z,89.00
2022-07-27T15:45:41.432Z,89.20
2022-07-27T15:48:11.500Z,88.70
2022-07-27T15:50:40.932Z,89.40
2022-07-27T15:53:11.333Z,90.00
2022-07-27T15:55:39.374Z,89.50
2022-07-27T15:58:07.949Z,88.70
2022-07-27T16:00:40.397Z,89.40
2022-07-27T16:03:09.662Z,88.20
2022-07-27T16:05:38.070Z,90.30
2022-07-27T16:08:07.486Z,89.80
2022-07-27T16:10:37.510Z,89.20
2022-07-27T16:13:06.392Z,90.20
2022-07-27T16:15:52.291Z,87.10
2022-07-27T16:18:20.240Z,90.00
2022-07-27T16:20:48.158Z,87.50
2022-07-27T16:23:18.763Z,87.80
2022-07-27T16:26:04.159Z,87.50
2022-07-27T16:28:35.374Z,86.80
2022-07-27T16:31:03.536Z,87.50
2022-07-27T16:33:31.477Z,88.80
2022-07-27T16:35:59.602Z,88.50
2022-07-27T16:38:27.434Z,89.80
2022-07-27T16:40:56.647Z,90.00
2022-07-27T16:43:33.933Z,88.30
2022-07-27T16:46:07.424Z,87.90
2022-07-27T16:48:41.660Z,88.00
2022-07-27T16:51:14.358Z,89.40
2022-07-27T16:53:43.871Z,86.60
2022-07-27T16:56:13.164Z,88.60
2022-07-27T16:58:41.585Z,89.40
2022-07-27T17:01:10.078Z,90.30
2022-07-27T17:03:51.249Z,88.80
2022-07-27T17:06:20.803Z,90.20
2022-07-27T17:08:48.991Z,90.10
2022-07-27T17:11:21.519Z,89.70
2022-07-27T17:13:50.985Z,90.40
2022-07-27T17:16:27.392Z,90.70
2022-07-27T17:18:55.853Z,90.20
2022-07-27T17:21:23.737Z,90.50
2022-07-27T17:23:51.631Z,90.30
2022-07-27T17:26:22.396Z,91.20
2022-07-27T17:28:53.171Z,90.60
2022-07-27T17:31:21.946Z,90.00
2022-07-27T17:33:50.588Z,91.30
2022-07-27T17:36:18.483Z,90.10
2022-07-27T17:38:47.633Z,90.80
2022-07-27T17:41:21.782Z,90.90
2022-07-27T17:43:53.391Z,91.20
2022-07-27T17:46:21.722Z,91.60
2022-07-27T17:48:49.702Z,90.70
2022-07-27T17:51:17.539Z,91.40
2022-07-27T17:53:46.490Z,91.70
2022-07-27T17:56:14.319Z,91.70
2022-07-27T17:58:42.851Z,91.80
2022-07-27T18:01:12.062Z,91.80
2022-07-27T18:03:40.103Z,92.00
2022-07-27T18:06:08.459Z,92.10
2022-07-27T18:08:36.654Z,92.10
2022-07-27T18:11:04.563Z,92.00
2022-07-27T18:13:39.360Z,92.10
2022-07-27T18:16:09.023Z,92.30
2022-07-27T18:18:39.182Z,92.30
2022-07-27T18:21:07.142Z,92.40
2022-07-27T18:23:35.750Z,92.40
2022-07-27T18:26:04.206Z,92.50
2022-07-27T18:28:38.998Z,92.60
2022-07-27T18:31:08.567Z,92.60
2022-07-27T18:33:40.155Z,92.70
2022-07-27T18:36:08.517Z,92.70
2022-07-27T18:38:36.310Z,92.70
2022-07-27T18:41:04.183Z,92.80
2022-07-27T18:43:31.965Z,92.80
2022-07-27T18:45:59.875Z,93.00
2022-07-27T18:48:28.689Z,93.00
2022-07-27T18:50:58.271Z,92.20
2022-07-27T18:53:26.072Z,93.30
2022-07-27T18:55:56.419Z,93.20
2022-07-27T18:58:25.171Z,93.30
2022-07-27T19:00:54.547Z,93.30
2022-07-27T19:03:24.578Z,93.30
2022-07-27T19:05:55.356Z,93.40
2022-07-27T19:08:24.920Z,93.30
2022-07-27T19:10:52.911Z,93.50
2022-07-27T19:13:21.073Z,93.50
2022-07-27T19:15:48.916Z,93.00
2022-07-27T19:18:16.721Z,93.80
2022-07-27T19:20:44.571Z,93.50
2022-07-27T19:23:13.178Z,93.40
2022-07-27T19:25:43.409Z,93.70
2022-07-27T19:28:11.329Z,93.60
2022-07-27T19:30:39.535Z,93.90
2022-07-27T19:33:07.443Z,94.20
2022-07-27T19:35:35.236Z,94.60
2022-07-27T19:38:03.337Z,95.00
2022-07-27T19:40:46.435Z,95.60
2022-07-27T19:43:16.197Z,95.30
2022-07-27T19:45:44.306Z,95.70
2022-07-27T19:48:12.286Z,95.80
2022-07-27T19:50:40.663Z,95.90
2022-07-27T19:53:08.549Z,95.90
2022-07-27T19:55:36.400Z,96.20
2022-07-27T19:58:04.366Z,96.20
2022-07-27T20:00:33.721Z,96.10
2022-07-27T20:03:01.755Z,96.10
2022-07-27T20:05:29.823Z,96.20
2022-07-27T20:07:57.770Z,96.20
2022-07-27T20:10:26.258Z,96.20
2022-07-27T20:12:54.142Z,96.20
2022-07-27T20:15:22.502Z,96.70
2022-07-27T20:17:52.009Z,96.60
2022-07-27T20:20:20.217Z,96.60
2022-07-27T20:22:48.716Z,96.40
2022-07-27T20:25:18.325Z,96.20
2022-07-27T20:27:46.882Z,96.70
2022-07-27T20:30:17.139Z,96.80
2022-07-27T20:32:45.377Z,97.20
2022-07-27T20:35:14.643Z,97.50
2022-07-27T20:37:42.783Z,97.10
2022-07-27T20:40:11.839Z,97.30
2022-07-27T20:42:41.218Z,97.40
2022-07-27T20:45:11.253Z,97.40
2022-07-27T20:47:39.253Z,97.20
2022-07-27T20:50:08.965Z,97.10
2022-07-27T20:52:38.468Z,96.80
2022-07-27T20:55:07.719Z,96.70
2022-07-27T20:57:36.137Z,96.90
2022-07-27T21:00:06.392Z,96.70
2022-07-27T21:02:34.616Z,96.70
2022-07-27T21:05:02.795Z,97.10
2022-07-27T21:07:31.378Z,96.80
2022-07-27T21:10:00.907Z,97.00
2022-07-27T21:12:28.970Z,96.90
2022-07-27T21:14:56.809Z,96.80
2022-07-27T21:17:24.648Z,96.90
2022-07-27T21:19:53.267Z,96.80
2022-07-27T21:22:21.169Z,96.80
2022-07-27T21:24:49.480Z,96.90
2022-07-27T21:27:21.266Z,96.80
2022-07-27T21:29:49.810Z,96.80
2022-07-27T21:32:18.486Z,96.90
2022-07-27T21:34:46.334Z,97.00
2022-07-27T21:37:14.294Z,97.00
2022-07-27T21:39:42.128Z,97.00
2022-07-27T21:42:10.001Z,97.10
2022-07-27T21:44:39.318Z,97.10
2022-07-27T21:47:13.116Z,97.10
2022-07-27T21:49:41.664Z,97.20
2022-07-27T21:52:09.581Z,97.20
2022-07-27T21:54:37.899Z,97.30
2022-07-27T21:57:06.299Z,97.30
2022-07-27T21:59:34.207Z,97.40
2022-07-27T22:02:03.468Z,97.40
2022-07-27T22:04:31.546Z,97.50
2022-07-27T22:06:59.576Z,97.50
2022-07-27T22:09:27.489Z,97.60
2022-07-27T22:11:56.382Z,97.80
2022-07-27T22:14:24.534Z,98.20
2022-07-27T22:16:53.620Z,97.80
2022-07-27T22:19:23.309Z,98.00
2022-07-27T22:21:51.145Z,98.00
2022-07-27T22:24:19.040Z,98.00
2022-07-27T22:26:46.839Z,98.10
2022-07-27T22:29:14.796Z,98.10
2022-07-27T22:31:42.749Z,98.00
2022-07-27T22:34:10.956Z,98.10
2022-07-27T22:36:40.417Z,98.10
2022-07-27T22:39:08.310Z,98.20
2022-07-27T22:41:36.209Z,98.10
2022-07-27T22:44:04.075Z,98.20
2022-07-27T22:46:31.993Z,98.20
2022-07-27T22:48:59.933Z,98.20
2022-07-27T22:51:49.785Z,98.30
2022-07-27T22:54:17.645Z,98.30
2022-07-27T22:56:45.792Z,98.40
2022-07-27T23:01:49.060Z,98.40
2022-07-27T23:04:18.170Z,98.50
2022-07-27T23:06:46.647Z,98.50
2022-07-27T23:09:16.274Z,98.50
2022-07-27T23:11:44.968Z,98.60
2022-07-27T23:14:13.328Z,98.70
2022-07-27T23:16:41.529Z,98.70
2022-07-27T23:19:09.592Z,98.70
2022-07-27T23:21:39.378Z,98.80
2022-07-27T23:24:07.741Z,98.90
2022-07-27T23:26:39.117Z,98.90
2022-07-27T23:29:07.013Z,98.90
2022-07-27T23:31:34.917Z,99.00
2022-07-27T23:34:02.865Z,99.10
2022-07-27T23:36:30.755Z,99.10
2022-07-27T23:38:58.572Z,99.10
2022-07-27T23:41:26.751Z,99.10
2022-07-27T23:43:56.012Z,99.20
2022-07-27T23:46:23.884Z,99.20
2022-07-27T23:48:51.764Z,99.20
2022-07-27T23:51:20.320Z,99.20
2022-07-27T23:53:48.824Z,99.30
2022-07-27T23:56:17.019Z,99.30
2022-07-27T23:58:45.685Z,99.30
